Time;durP1;ratioP1;P1;durP2;ratioP2;P2;SDS_P1;SDS_P2;PMS_P1;PMS_P2;Temp;Humidity;BMP_temperature;BMP_pressure;BME280_temperature;BME280_humidity;BME280_pressure;Samples;Min_cycle;Max_cycle;Signal;HPM_P1;HPM_P2
2023/05/08 00:00:37;;;;;;;10.83;9.53;;;;;;;;;;5052727;28;20179;-81
2023/05/08 00:03:02;;;;;;;11.30;10.10;;;;;;;;;;5048766;28;20195;-81
2023/05/08 00:05:28;;;;;;;12.23;10.93;;;;;;;;;;5045032;28;20174;-81
2023/05/08 00:08:00;;;;;;;11.37;10.27;;;;;;;;;;5050149;28;20228;-81
2023/05/08 00:10:25;;;;;;;11.50;10.40;;;;;;;;;;5048860;28;20185;-81
2023/05/08 00:12:50;;;;;;;10.73;9.63;;;;;;;;;;5061130;28;20331;-81
2023/05/08 00:15:15;;;;;;;11.73;10.13;;;;;;;;;;5049818;28;20176;-81
2023/05/08 00:17:40;;;;;;;11.67;9.87;;;;;;;;;;5065750;28;20217;-81
2023/05/08 00:20:07;;;;;;;11.13;10.03;;;;;;;;;;5047156;28;20202;-81
2023/05/08 00:22:32;;;;;;;10.97;9.87;;;;;;;;;;5048760;28;20168;-81
2023/05/08 00:24:58;;;;;;;11.07;9.13;;;;;;;;;;5052358;28;20182;-81
2023/05/08 00:27:23;;;;;;;10.57;9.50;;;;;;;;;;5052740;28;20175;-81
2023/05/08 00:29:49;;;;;;;11.33;10.13;;;;;;;;;;5043046;28;20324;-81
2023/05/08 00:32:14;;;;;;;10.93;9.90;;;;;;;;;;5056088;28;20167;-81
2023/05/08 00:34:39;;;;;;;12.07;10.80;;;;;;;;;;5047017;28;20187;-81
2023/05/08 00:37:04;;;;;;;10.03;9.00;;;;;;;;;;5049426;28;20194;-81
2023/05/08 00:39:30;;;;;;;11.27;10.13;;;;;;;;;;5048875;28;20208;-81
2023/05/08 00:41:55;;;;;;;11.70;10.43;;;;;;;;;;5050015;28;20179;-81
2023/05/08 00:44:20;;;;;;;11.73;10.47;;;;;;;;;;5062161;28;20193;-81
2023/05/08 00:46:45;;;;;;;11.03;9.93;;;;;;;;;;5048896;28;20178;-81
2023/05/08 00:49:13;;;;;;;11.30;9.47;;;;;;;;;;5047231;28;20194;-81
2023/05/08 00:51:43;;;;;;;11.80;10.47;;;;;;;;;;5049619;28;20175;-81
2023/05/08 00:54:08;;;;;;;11.43;10.00;;;;;;;;;;5044129;28;20183;-81
2023/05/08 00:56:34;;;;;;;12.60;11.30;;;;;;;;;;5050161;28;20186;-81
2023/05/08 00:59:00;;;;;;;11.60;10.10;;;;;;;;;;5039815;28;20203;-81
2023/05/08 01:01:25;;;;;;;13.97;10.73;;;;;;;;;;5048763;28;20189;-81
2023/05/08 01:03:51;;;;;;;11.50;10.43;;;;;;;;;;5065251;28;20284;-81
2023/05/08 01:06:16;;;;;;;11.53;9.83;;;;;;;;;;5051135;28;20179;-81
2023/05/08 01:08:43;;;;;;;10.63;9.00;;;;;;;;;;5048697;28;20281;-81
2023/05/08 01:11:08;;;;;;;11.50;10.40;;;;;;;;;;5043333;28;20188;-81
2023/05/08 01:13:45;;;;;;;11.25;10.05;;;;;;;;;;5049696;28;20173;-81
2023/05/08 01:16:13;;;;;;;11.53;9.13;;;;;;;;;;5065702;28;20186;-81
2023/05/08 01:18:57;;;;;;;10.13;8.90;;;;;;;;;;5048218;28;20199;-81
2023/05/08 01:21:44;;;;;;;11.83;9.43;;;;;;;;;;5062283;28;20222;-81
2023/05/08 01:24:25;;;;;;;10.23;8.43;;;;;;;;;;5050091;28;20185;-81
2023/05/08 01:27:04;;;;;;;9.03;8.17;;;;;;;;;;5047785;28;20185;-81
2023/05/08 01:29:41;;;;;;;10.07;8.37;;;;;;;;;;5047753;28;20192;-81
2023/05/08 01:32:12;;;;;;;9.77;7.67;;;;;;;;;;5047812;28;20237;-81
2023/05/08 01:34:43;;;;;;;13.20;9.27;;;;;;;;;;5046711;28;20224;-81
2023/05/08 01:37:14;;;;;;;12.87;10.13;;;;;;;;;;5043848;28;20286;-81
2023/05/08 01:39:50;;;;;;;9.87;8.93;;;;;;;;;;5046236;28;20237;-81
2023/05/08 01:42:27;;;;;;;9.53;8.20;;;;;;;;;;5049722;28;20168;-81
2023/05/08 01:45:07;;;;;;;8.93;8.00;;;;;;;;;;5041060;28;20204;-81
2023/05/08 01:47:36;;;;;;;8.70;7.80;;;;;;;;;;5046396;28;20185;-81
2023/05/08 01:50:13;;;;;;;10.27;8.27;;;;;;;;;;5042438;28;20207;-81
2023/05/08 01:52:47;;;;;;;9.33;8.53;;;;;;;;;;5048539;28;20192;-81
2023/05/08 01:55:18;;;;;;;9.40;8.57;;;;;;;;;;5063565;28;20174;-81
2023/05/08 01:57:46;;;;;;;8.90;7.60;;;;;;;;;;5047552;28;20212;-81
2023/05/08 02:00:13;;;;;;;7.37;6.67;;;;;;;;;;5048765;28;20190;-81
2023/05/08 02:02:39;;;;;;;7.73;6.73;;;;;;;;;;5039855;28;20205;-81
2023/05/08 02:05:05;;;;;;;7.47;6.77;;;;;;;;;;5050159;28;20242;-82
2023/05/08 02:07:34;;;;;;;8.00;7.20;;;;;;;;;;5048205;28;20174;-82
2023/05/08 02:10:00;;;;;;;8.77;7.07;;;;;;;;;;5045483;28;20231;-81
2023/05/08 02:12:26;;;;;;;7.03;6.37;;;;;;;;;;5048023;28;20178;-81
2023/05/08 02:14:53;;;;;;;9.57;7.23;;;;;;;;;;5047736;28;20193;-81
2023/05/08 02:17:19;;;;;;;9.00;8.20;;;;;;;;;;5042997;28;20205;-81
2023/05/08 02:19:45;;;;;;;9.63;8.57;;;;;;;;;;5049216;28;20229;-81
2023/05/08 02:22:11;;;;;;;10.07;8.67;;;;;;;;;;5045676;28;20170;-81
2023/05/08 02:24:37;;;;;;;9.03;8.13;;;;;;;;;;5054784;28;20185;-81
2023/05/08 02:27:02;;;;;;;8.17;7.40;;;;;;;;;;5044534;28;20167;-81
2023/05/08 02:29:28;;;;;;;8.73;7.83;;;;;;;;;;5044669;28;20218;-81
2023/05/08 02:31:54;;;;;;;9.33;8.37;;;;;;;;;;5044845;28;20249;-81
2023/05/08 02:34:20;;;;;;;8.90;8.10;;;;;;;;;;5049333;28;20186;-81
2023/05/08 02:36:46;;;;;;;9.90;8.57;;;;;;;;;;5043196;28;20175;-81
2023/05/08 02:39:12;;;;;;;9.73;8.30;;;;;;;;;;5043242;28;20241;-81
2023/05/08 02:41:39;;;;;;;9.17;8.27;;;;;;;;;;5046095;28;20189;-81
2023/05/08 02:44:04;;;;;;;7.70;6.93;;;;;;;;;;5042744;28;20208;-81
2023/05/08 02:46:41;;;;;;;8.80;8.00;;;;;;;;;;5043159;28;20184;-81
2023/05/08 02:49:11;;;;;;;9.23;8.40;;;;;;;;;;5063561;28;20264;-81
2023/05/08 02:51:42;;;;;;;10.87;8.27;;;;;;;;;;5047900;28;20193;-81
2023/05/08 02:54:17;;;;;;;8.50;7.43;;;;;;;;;;5034853;28;20230;-81
2023/05/08 02:56:45;;;;;;;9.03;7.53;;;;;;;;;;5042136;28;20234;-82
2023/05/08 02:59:14;;;;;;;8.27;7.40;;;;;;;;;;5036964;28;20205;-81
2023/05/08 03:01:45;;;;;;;8.20;7.40;;;;;;;;;;5061838;28;20205;-81
2023/05/08 03:04:12;;;;;;;8.43;7.63;;;;;;;;;;5042135;28;20444;-81
2023/05/08 03:06:40;;;;;;;7.83;6.57;;;;;;;;;;5046484;28;20185;-81
2023/05/08 03:09:06;;;;;;;8.33;7.53;;;;;;;;;;5049575;28;20192;-81
2023/05/08 03:11:35;;;;;;;9.73;7.80;;;;;;;;;;5046062;28;20182;-81
2023/05/08 03:14:01;;;;;;;9.37;8.47;;;;;;;;;;5047559;28;20193;-81
2023/05/08 03:16:30;;;;;;;10.03;9.03;;;;;;;;;;5046968;28;20197;-81
2023/05/08 03:18:58;;;;;;;9.53;8.63;;;;;;;;;;5045570;28;20205;-81
2023/05/08 03:21:27;;;;;;;8.47;7.47;;;;;;;;;;5042647;28;20193;-81
2023/05/08 03:23:53;;;;;;;8.03;7.33;;;;;;;;;;5046517;28;20181;-81
2023/05/08 03:26:18;;;;;;;9.33;8.43;;;;;;;;;;5047437;28;20200;-81
2023/05/08 03:28:48;;;;;;;8.70;7.67;;;;;;;;;;5046446;28;20182;-81
2023/05/08 03:31:15;;;;;;;8.17;7.47;;;;;;;;;;5044483;28;20225;-81
2023/05/08 03:33:42;;;;;;;10.43;9.33;;;;;;;;;;5049524;28;20179;-81
2023/05/08 03:36:07;;;;;;;10.23;9.33;;;;;;;;;;5039800;28;20231;-81
2023/05/08 03:38:33;;;;;;;9.67;8.77;;;;;;;;;;5042888;28;20203;-81
2023/05/08 03:40:58;;;;;;;13.77;11.57;;;;;;;;;;5049450;28;20194;-81
2023/05/08 03:43:23;;;;;;;8.87;8.07;;;;;;;;;;5042702;28;20178;-80
2023/05/08 03:45:49;;;;;;;10.47;8.70;;;;;;;;;;5048093;28;20170;-80
2023/05/08 03:48:15;;;;;;;9.70;8.80;;;;;;;;;;5046977;28;20175;-80
2023/05/08 03:50:40;;;;;;;8.07;7.33;;;;;;;;;;5048165;28;20178;-80
2023/05/08 03:53:05;;;;;;;10.33;9.10;;;;;;;;;;5038080;28;20216;-81
2023/05/08 03:55:31;;;;;;;9.53;8.30;;;;;;;;;;5044973;28;20276;-80
2023/05/08 03:58:00;;;;;;;9.03;8.20;;;;;;;;;;5045992;28;20182;-80
2023/05/08 04:00:33;;;;;;;9.63;8.67;;;;;;;;;;5041779;28;20232;-81
2023/05/08 04:03:11;;;;;;;11.80;9.57;;;;;;;;;;5042412;28;20206;-80
2023/05/08 04:05:42;;;;;;;10.80;9.77;;;;;;;;;;5038388;28;20179;-81
2023/05/08 04:08:13;;;;;;;9.73;8.70;;;;;;;;;;5043892;28;20185;-80
2023/05/08 04:10:43;;;;;;;9.90;8.93;;;;;;;;;;5040631;28;20217;-80
2023/05/08 04:13:12;;;;;;;10.20;9.10;;;;;;;;;;5047394;28;20210;-80
2023/05/08 04:15:42;;;;;;;10.20;7.70;;;;;;;;;;5048988;28;20269;-81
2023/05/08 04:18:09;;;;;;;9.03;8.23;;;;;;;;;;5048302;28;20178;-81
2023/05/08 04:20:37;;;;;;;12.90;11.70;;;;;;;;;;5040688;28;20177;-80
2023/05/08 04:23:03;;;;;;;8.53;7.27;;;;;;;;;;5042740;28;20178;-81
2023/05/08 04:25:29;;;;;;;7.30;6.60;;;;;;;;;;5033700;28;20182;-81
2023/05/08 04:27:56;;;;;;;9.37;7.57;;;;;;;;;;5044277;28;20186;-81
2023/05/08 04:30:21;;;;;;;7.73;7.03;;;;;;;;;;5046834;28;20225;-80
2023/05/08 04:32:47;;;;;;;8.27;7.43;;;;;;;;;;5045109;28;20177;-80
2023/05/08 04:35:13;;;;;;;9.80;8.90;;;;;;;;;;5046476;28;20186;-80
2023/05/08 04:37:40;;;;;;;9.53;8.60;;;;;;;;;;5039135;28;20187;-80
2023/05/08 04:40:05;;;;;;;13.57;9.40;;;;;;;;;;5041548;28;20294;-81
2023/05/08 04:42:32;;;;;;;10.17;9.13;;;;;;;;;;5051746;28;20190;-80
2023/05/08 04:44:57;;;;;;;10.87;9.47;;;;;;;;;;5055125;28;20259;-80
2023/05/08 04:47:22;;;;;;;14.17;8.50;;;;;;;;;;5044080;28;20254;-80
2023/05/08 04:49:48;;;;;;;8.77;7.93;;;;;;;;;;5046659;28;20180;-80
2023/05/08 04:52:13;;;;;;;14.87;9.50;;;;;;;;;;5047071;28;20178;-80
2023/05/08 04:54:38;;;;;;;19.67;9.47;;;;;;;;;;5048503;28;20186;-80
2023/05/08 04:57:04;;;;;;;8.97;8.03;;;;;;;;;;5045847;28;20186;-80
2023/05/08 04:59:29;;;;;;;9.97;8.13;;;;;;;;;;5050549;28;20206;-80
2023/05/08 05:01:55;;;;;;;10.23;8.10;;;;;;;;;;5047254;28;20171;-78
2023/05/08 05:04:20;;;;;;;14.27;8.87;;;;;;;;;;5043937;28;20190;-76
2023/05/08 05:06:45;;;;;;;8.77;7.97;;;;;;;;;;5044229;28;20170;-76
2023/05/08 05:09:11;;;;;;;11.47;7.80;;;;;;;;;;5050766;28;20166;-76
2023/05/08 05:11:36;;;;;;;17.50;7.93;;;;;;;;;;5046739;28;20197;-76
2023/05/08 05:14:01;;;;;;;28.97;8.50;;;;;;;;;;5040175;28;20166;-76
2023/05/08 05:16:26;;;;;;;22.53;9.27;;;;;;;;;;5047098;28;20179;-77
2023/05/08 05:18:52;;;;;;;19.07;9.10;;;;;;;;;;5046702;28;20208;-77
2023/05/08 05:21:17;;;;;;;12.23;8.70;;;;;;;;;;5051390;28;20177;-76
2023/05/08 05:23:43;;;;;;;11.87;8.80;;;;;;;;;;5046311;28;20264;-76
2023/05/08 05:26:08;;;;;;;16.07;10.00;;;;;;;;;;5048889;28;20228;-76
2023/05/08 05:28:33;;;;;;;17.57;9.27;;;;;;;;;;5040624;28;20273;-77
2023/05/08 05:30:59;;;;;;;9.47;8.47;;;;;;;;;;5046211;28;20282;-77
2023/05/08 05:33:38;;;;;;;8.27;7.47;;;;;;;;;;5091817;27;20531;-75
2023/05/08 05:36:04;;;;;;;9.53;8.63;;;;;;;;;;5060502;28;20235;-74
2023/05/08 05:38:32;;;;;;;13.37;9.57;;;;;;;;;;5061217;28;20204;-75
2023/05/08 05:40:57;;;;;;;10.80;9.20;;;;;;;;;;5079340;28;20261;-75
2023/05/08 05:43:22;;;;;;;10.77;9.67;;;;;;;;;;5061744;28;20269;-75
2023/05/08 05:45:48;;;;;;;10.93;9.83;;;;;;;;;;5057345;28;20186;-75
2023/05/08 05:48:13;;;;;;;14.00;11.17;;;;;;;;;;5072553;28;20191;-75
2023/05/08 05:50:38;;;;;;;10.60;9.00;;;;;;;;;;5075119;28;20203;-75
2023/05/08 05:53:04;;;;;;;11.20;9.53;;;;;;;;;;5054040;28;20209;-75
2023/05/08 05:55:29;;;;;;;12.87;10.70;;;;;;;;;;5070745;28;20413;-75
2023/05/08 05:57:55;;;;;;;12.37;11.07;;;;;;;;;;5052345;28;20219;-75
2023/05/08 06:00:20;;;;;;;14.00;11.50;;;;;;;;;;5076573;28;20172;-75
2023/05/08 06:02:46;;;;;;;10.57;9.47;;;;;;;;;;5055178;28;20193;-76
2023/05/08 06:05:11;;;;;;;11.40;10.27;;;;;;;;;;5075819;28;20181;-75
2023/05/08 06:07:37;;;;;;;9.33;8.43;;;;;;;;;;5059143;28;20178;-75
2023/05/08 06:10:02;;;;;;;10.07;9.07;;;;;;;;;;5058808;28;20181;-76
2023/05/08 06:12:27;;;;;;;11.07;9.57;;;;;;;;;;5061008;28;20239;-75
2023/05/08 06:14:53;;;;;;;10.10;8.00;;;;;;;;;;5054614;28;20177;-75
2023/05/08 06:17:18;;;;;;;9.33;7.60;;;;;;;;;;5078112;28;20175;-76
2023/05/08 06:19:49;;;;;;;7.93;7.17;;;;;;;;;;5055623;28;20178;-76
2023/05/08 06:22:14;;;;;;;9.50;7.67;;;;;;;;;;5055244;28;20200;-75
2023/05/08 06:24:39;;;;;;;8.37;6.80;;;;;;;;;;5058236;28;20185;-75
2023/05/08 06:27:04;;;;;;;7.33;6.63;;;;;;;;;;5074365;28;20189;-75
2023/05/08 06:29:29;;;;;;;6.10;5.50;;;;;;;;;;5078180;28;20238;-76
2023/05/08 06:31:55;;;;;;;6.80;6.13;;;;;;;;;;5060801;28;20221;-75
2023/05/08 06:34:36;;;;;;;5.87;5.37;;;;;;;;;;5072395;28;20173;-76
2023/05/08 06:37:04;;;;;;;7.77;6.87;;;;;;;;;;5075781;28;20181;-76
2023/05/08 06:39:29;;;;;;;5.50;4.87;;;;;;;;;;5072381;28;20210;-76
2023/05/08 06:41:55;;;;;;;6.03;5.53;;;;;;;;;;5075097;28;20218;-76
2023/05/08 06:44:20;;;;;;;5.60;5.10;;;;;;;;;;5066065;28;20224;-77
2023/05/08 06:46:45;;;;;;;7.27;6.57;;;;;;;;;;5062632;28;20188;-77
2023/05/08 06:49:10;;;;;;;6.87;6.17;;;;;;;;;;5061764;28;20173;-77
2023/05/08 06:51:37;;;;;;;6.23;5.63;;;;;;;;;;5057294;28;20209;-77
2023/05/08 06:54:06;;;;;;;7.43;6.80;;;;;;;;;;5056586;28;20247;-77
2023/05/08 06:56:31;;;;;;;6.80;6.20;;;;;;;;;;5064462;28;20174;-77
2023/05/08 06:58:56;;;;;;;7.20;6.50;;;;;;;;;;5057691;28;20227;-77
2023/05/08 07:01:22;;;;;;;6.60;5.77;;;;;;;;;;5055951;28;20183;-77
2023/05/08 07:03:47;;;;;;;6.20;5.70;;;;;;;;;;5063960;28;20194;-77
2023/05/08 07:06:12;;;;;;;6.80;6.20;;;;;;;;;;5061450;28;20182;-76
2023/05/08 07:08:37;;;;;;;6.50;5.83;;;;;;;;;;5053789;28;20200;-77
2023/05/08 07:11:03;;;;;;;12.80;11.60;;;;;;;;;;5062331;28;20227;-77
2023/05/08 07:13:29;;;;;;;8.03;7.33;;;;;;;;;;5060119;28;20205;-77
2023/05/08 07:15:54;;;;;;;7.63;6.83;;;;;;;;;;5062643;28;20180;-76
2023/05/08 07:18:20;;;;;;;9.07;8.13;;;;;;;;;;5064054;28;20247;-77
2023/05/08 07:20:45;;;;;;;7.00;6.40;;;;;;;;;;5057693;28;20201;-77
2023/05/08 07:23:11;;;;;;;3.43;2.63;;;;;;;;;;5059929;28;20178;-76
2023/05/08 07:25:36;;;;;;;5.50;4.17;;;;;;;;;;5059500;28;20181;-77
2023/05/08 07:28:01;;;;;;;2.80;2.20;;;;;;;;;;5059244;28;20224;-76
2023/05/08 07:30:26;;;;;;;2.50;2.30;;;;;;;;;;5060136;28;20173;-77
2023/05/08 07:32:52;;;;;;;3.70;3.40;;;;;;;;;;5058805;28;20241;-76
2023/05/08 07:35:17;;;;;;;5.70;5.17;;;;;;;;;;5075924;28;20293;-76
2023/05/08 07:37:42;;;;;;;4.80;4.40;;;;;;;;;;5063230;28;20262;-76
2023/05/08 07:40:08;;;;;;;3.93;3.53;;;;;;;;;;5058340;28;20167;-77
2023/05/08 07:42:42;;;;;;;2.80;2.60;;;;;;;;;;5055326;28;20191;-77
2023/05/08 07:45:09;;;;;;;2.20;2.07;;;;;;;;;;5055134;28;20186;-77
2023/05/08 07:47:34;;;;;;;2.40;2.20;;;;;;;;;;5062136;28;20182;-76
2023/05/08 07:49:59;;;;;;;2.47;2.27;;;;;;;;;;5062431;28;20182;-77
2023/05/08 07:52:25;;;;;;;3.00;2.17;;;;;;;;;;5062153;28;20209;-76
2023/05/08 07:54:50;;;;;;;2.37;2.13;;;;;;;;;;5056268;28;20217;-75
2023/05/08 07:57:15;;;;;;;2.37;2.20;;;;;;;;;;5059404;28;20170;-76
2023/05/08 07:59:41;;;;;;;1.80;1.70;;;;;;;;;;5059860;28;20177;-76
2023/05/08 08:02:06;;;;;;;2.50;2.27;;;;;;;;;;5061482;28;20202;-76
2023/05/08 08:04:31;;;;;;;2.60;2.40;;;;;;;;;;5056605;28;20226;-76
2023/05/08 08:06:57;;;;;;;3.83;2.23;;;;;;;;;;5063589;28;20232;-77
2023/05/08 08:09:22;;;;;;;3.33;3.07;;;;;;;;;;5053837;28;20186;-76
2023/05/08 08:11:47;;;;;;;3.57;3.07;;;;;;;;;;5062392;28;20194;-76
2023/05/08 08:14:12;;;;;;;3.23;2.50;;;;;;;;;;5062780;28;20170;-77
2023/05/08 08:16:37;;;;;;;3.20;2.93;;;;;;;;;;5063091;28;20174;-76
2023/05/08 08:19:02;;;;;;;2.97;2.67;;;;;;;;;;5060406;28;20219;-76
2023/05/08 08:21:28;;;;;;;2.73;2.53;;;;;;;;;;5061681;28;20281;-77
2023/05/08 08:23:53;;;;;;;4.43;4.03;;;;;;;;;;5055741;28;20182;-76
2023/05/08 08:26:19;;;;;;;3.13;2.93;;;;;;;;;;5064344;28;20205;-76
2023/05/08 08:28:44;;;;;;;3.63;3.33;;;;;;;;;;5052076;28;20248;-77
2023/05/08 08:31:09;;;;;;;3.30;3.00;;;;;;;;;;5082141;28;20177;-76
2023/05/08 08:33:34;;;;;;;4.70;3.10;;;;;;;;;;5038563;28;20219;-76
2023/05/08 08:36:00;;;;;;;4.03;3.07;;;;;;;;;;5022158;28;20183;-77
2023/05/08 08:38:25;;;;;;;3.00;2.73;;;;;;;;;;5021640;28;20174;-77
2023/05/08 08:40:51;;;;;;;3.37;3.07;;;;;;;;;;5028015;28;20220;-77
2023/05/08 08:43:17;;;;;;;3.97;3.57;;;;;;;;;;5039171;28;20314;-76
2023/05/08 08:45:42;;;;;;;3.43;3.13;;;;;;;;;;5039461;28;20195;-76
2023/05/08 08:48:10;;;;;;;3.00;2.80;;;;;;;;;;5041104;28;20194;-76
2023/05/08 08:50:35;;;;;;;3.03;2.83;;;;;;;;;;5020345;28;20185;-76
2023/05/08 08:53:07;;;;;;;3.63;3.33;;;;;;;;;;5033590;28;20194;-76
2023/05/08 08:55:32;;;;;;;3.20;3.00;;;;;;;;;;5015359;28;20182;-76
2023/05/08 08:58:16;;;;;;;2.20;2.10;;;;;;;;;;5036316;28;20182;-76
2023/05/08 09:00:41;;;;;;;2.90;2.70;;;;;;;;;;5037581;28;20178;-76
2023/05/08 09:03:07;;;;;;;2.60;2.40;;;;;;;;;;5040828;28;20245;-76
2023/05/08 09:05:32;;;;;;;3.60;3.20;;;;;;;;;;5044266;28;20268;-76
2023/05/08 09:07:58;;;;;;;2.97;2.77;;;;;;;;;;5026009;28;20175;-76
2023/05/08 09:10:23;;;;;;;4.33;3.90;;;;;;;;;;5036720;28;20278;-76
2023/05/08 09:12:49;;;;;;;2.80;2.60;;;;;;;;;;5037085;28;20202;-77
2023/05/08 09:15:14;;;;;;;3.63;3.33;;;;;;;;;;5017322;28;20186;-77
2023/05/08 09:17:39;;;;;;;2.70;2.50;;;;;;;;;;5019696;28;20180;-77
2023/05/08 09:20:05;;;;;;;2.60;2.40;;;;;;;;;;5034069;28;20171;-77
2023/05/08 09:22:31;;;;;;;2.80;2.50;;;;;;;;;;5037159;28;20179;-76
2023/05/08 09:24:57;;;;;;;2.33;2.13;;;;;;;;;;5018110;28;20171;-76
2023/05/08 09:27:27;;;;;;;2.60;2.40;;;;;;;;;;5037888;28;20182;-76
2023/05/08 09:29:59;;;;;;;2.23;2.10;;;;;;;;;;5023232;28;20185;-76
2023/05/08 09:32:24;;;;;;;2.70;2.50;;;;;;;;;;5036235;28;20223;-77
2023/05/08 09:34:53;;;;;;;2.80;2.60;;;;;;;;;;5055475;28;20179;-77
2023/05/08 09:37:18;;;;;;;3.00;2.60;;;;;;;;;;5049600;28;20259;-77
2023/05/08 09:39:45;;;;;;;4.40;3.60;;;;;;;;;;5057841;28;20272;-77
2023/05/08 09:42:11;;;;;;;2.60;2.40;;;;;;;;;;5052794;28;20377;-77
2023/05/08 09:44:43;;;;;;;3.83;3.50;;;;;;;;;;5048365;28;20174;-77
2023/05/08 09:47:13;;;;;;;2.70;2.50;;;;;;;;;;5053719;28;20186;-77
2023/05/08 09:49:39;;;;;;;2.67;2.43;;;;;;;;;;5055733;28;20192;-77
2023/05/08 09:52:05;;;;;;;2.70;2.50;;;;;;;;;;5054872;28;20206;-77
2023/05/08 09:54:30;;;;;;;2.90;2.70;;;;;;;;;;5052190;28;20267;-77
2023/05/08 09:56:55;;;;;;;2.97;2.70;;;;;;;;;;5053477;28;20198;-76
2023/05/08 09:59:22;;;;;;;2.73;2.53;;;;;;;;;;5053248;28;20186;-76
2023/05/08 10:01:50;;;;;;;2.13;2.00;;;;;;;;;;5076795;28;20258;-77
2023/05/08 10:04:15;;;;;;;2.50;2.30;;;;;;;;;;5059225;28;20249;-76
2023/05/08 10:06:40;;;;;;;2.13;2.00;;;;;;;;;;5061463;28;20286;-77
2023/05/08 10:09:05;;;;;;;1.93;1.83;;;;;;;;;;5053059;28;20179;-77
2023/05/08 10:11:31;;;;;;;2.30;2.10;;;;;;;;;;5053692;28;20194;-77
2023/05/08 10:13:56;;;;;;;2.70;2.50;;;;;;;;;;5051598;28;20184;-77
2023/05/08 10:16:21;;;;;;;2.70;2.50;;;;;;;;;;5052997;28;20207;-77
2023/05/08 10:18:48;;;;;;;2.30;2.20;;;;;;;;;;5060027;28;20184;-77
2023/05/08 10:21:14;;;;;;;3.47;3.17;;;;;;;;;;5066775;28;20212;-77
2023/05/08 10:23:41;;;;;;;2.80;2.60;;;;;;;;;;5057297;28;20179;-77
2023/05/08 10:26:10;;;;;;;3.40;3.10;;;;;;;;;;5058873;28;20264;-77
2023/05/08 10:28:45;;;;;;;2.73;2.53;;;;;;;;;;5052051;28;20227;-77
2023/05/08 10:31:16;;;;;;;2.90;2.70;;;;;;;;;;5054361;28;20187;-77
2023/05/08 10:33:43;;;;;;;4.20;3.23;;;;;;;;;;5060942;28;20222;-78
2023/05/08 10:36:08;;;;;;;4.00;3.60;;;;;;;;;;5055835;28;20184;-76
2023/05/08 10:38:35;;;;;;;4.10;3.80;;;;;;;;;;5066605;28;20179;-77
2023/05/08 10:41:01;;;;;;;3.53;3.23;;;;;;;;;;5062193;28;20287;-78
2023/05/08 10:43:27;;;;;;;4.40;3.80;;;;;;;;;;5067221;28;20170;-78
2023/05/08 10:45:54;;;;;;;5.47;4.53;;;;;;;;;;5066530;28;20179;-78
2023/05/08 10:48:22;;;;;;;4.03;3.73;;;;;;;;;;5068490;28;20179;-78
2023/05/08 10:50:50;;;;;;;3.67;3.37;;;;;;;;;;5065200;28;20243;-75
2023/05/08 10:53:28;;;;;;;4.07;3.37;;;;;;;;;;5063480;28;20205;-75
2023/05/08 10:55:53;;;;;;;6.60;6.00;;;;;;;;;;5060006;28;20181;-75
2023/05/08 10:58:22;;;;;;;7.23;6.63;;;;;;;;;;5069870;28;20236;-75
2023/05/08 11:00:58;;;;;;;7.90;7.17;;;;;;;;;;5058828;28;20184;-75
2023/05/08 11:03:24;;;;;;;7.47;6.77;;;;;;;;;;5065537;28;20200;-76
2023/05/08 11:05:50;;;;;;;9.00;8.17;;;;;;;;;;5066939;28;20180;-76
2023/05/08 11:08:26;;;;;;;8.87;8.07;;;;;;;;;;5074817;28;20204;-76
2023/05/08 11:10:57;;;;;;;8.73;7.77;;;;;;;;;;5060019;28;20267;-75
2023/05/08 11:13:26;;;;;;;9.63;8.73;;;;;;;;;;5055624;28;20203;-75
2023/05/08 11:15:51;;;;;;;8.70;7.90;;;;;;;;;;5062257;28;20266;-75
2023/05/08 11:18:17;;;;;;;8.67;7.77;;;;;;;;;;5080992;28;20267;-76
2023/05/08 11:20:56;;;;;;;9.67;8.47;;;;;;;;;;5057512;28;20208;-76
2023/05/08 11:23:27;;;;;;;8.97;8.13;;;;;;;;;;5053999;28;20218;-75
2023/05/08 11:26:03;;;;;;;7.27;6.57;;;;;;;;;;5069368;28;20183;-76
2023/05/08 11:28:31;;;;;;;7.80;7.00;;;;;;;;;;5056224;28;20201;-76
2023/05/08 11:31:01;;;;;;;7.03;6.37;;;;;;;;;;5070205;28;20191;-76
2023/05/08 11:33:36;;;;;;;6.97;6.27;;;;;;;;;;5049404;28;20228;-75
2023/05/08 11:36:13;;;;;;;6.20;5.70;;;;;;;;;;5019401;28;20177;-75
2023/05/08 11:38:39;;;;;;;5.97;5.37;;;;;;;;;;5032334;28;20196;-75
2023/05/08 11:41:20;;;;;;;8.17;6.57;;;;;;;;;;5023618;28;20264;-76
2023/05/08 11:43:55;;;;;;;4.97;4.50;;;;;;;;;;5018447;28;20186;-75
2023/05/08 11:46:20;;;;;;;5.63;4.93;;;;;;;;;;5022645;28;20243;-76
2023/05/08 11:48:46;;;;;;;6.27;5.63;;;;;;;;;;5024868;28;20181;-76
2023/05/08 11:51:12;;;;;;;5.27;4.23;;;;;;;;;;5043270;28;20193;-76
2023/05/08 11:53:38;;;;;;;4.87;4.37;;;;;;;;;;5020756;28;20193;-76
2023/05/08 11:56:03;;;;;;;4.60;4.20;;;;;;;;;;5019036;28;20180;-76
2023/05/08 11:58:28;;;;;;;4.33;4.03;;;;;;;;;;5028450;28;20182;-76
2023/05/08 12:00:54;;;;;;;4.43;4.00;;;;;;;;;;5018336;28;20203;-76
2023/05/08 12:03:24;;;;;;;5.80;3.47;;;;;;;;;;5042710;28;20216;-75
2023/05/08 12:05:49;;;;;;;3.50;3.20;;;;;;;;;;5020512;28;20204;-76
2023/05/08 12:08:15;;;;;;;3.03;2.83;;;;;;;;;;5038987;28;20185;-76
2023/05/08 12:10:50;;;;;;;2.93;2.73;;;;;;;;;;5037987;28;20182;-76
2023/05/08 12:13:18;;;;;;;2.77;2.57;;;;;;;;;;5019875;28;20205;-76
2023/05/08 12:15:44;;;;;;;11.23;2.80;;;;;;;;;;5039842;28;20168;-76
2023/05/08 12:18:11;;;;;;;5.03;4.50;;;;;;;;;;5019747;28;20256;-76
2023/05/08 12:20:37;;;;;;;6.20;3.50;;;;;;;;;;5020371;28;20189;-76
2023/05/08 12:23:02;;;;;;;3.50;3.20;;;;;;;;;;5042722;28;20178;-76
2023/05/08 12:25:27;;;;;;;5.13;3.47;;;;;;;;;;5017203;28;20181;-76
2023/05/08 12:27:52;;;;;;;4.50;3.73;;;;;;;;;;5023853;28;20211;-76
2023/05/08 12:30:18;;;;;;;4.00;3.63;;;;;;;;;;5044323;28;20286;-76
2023/05/08 12:32:43;;;;;;;13.90;4.47;;;;;;;;;;5036745;28;20271;-75
2023/05/08 12:35:09;;;;;;;8.33;4.77;;;;;;;;;;5059152;28;20204;-76
2023/05/08 12:37:35;;;;;;;3.80;3.50;;;;;;;;;;5067085;28;20189;-76
2023/05/08 12:40:01;;;;;;;3.63;3.33;;;;;;;;;;5065809;28;20174;-76
2023/05/08 12:42:42;;;;;;;3.87;3.53;;;;;;;;;;5051868;28;20178;-76
2023/05/08 12:45:07;;;;;;;4.97;4.57;;;;;;;;;;5065128;28;20173;-76
2023/05/08 12:47:33;;;;;;;4.50;3.87;;;;;;;;;;5074993;28;20187;-76
2023/05/08 12:49:58;;;;;;;4.63;4.23;;;;;;;;;;5059440;28;20197;-76
2023/05/08 12:52:23;;;;;;;3.47;3.17;;;;;;;;;;5050496;28;20207;-76
2023/05/08 12:54:48;;;;;;;4.93;3.60;;;;;;;;;;5058952;28;20175;-76
2023/05/08 12:57:18;;;;;;;3.93;3.63;;;;;;;;;;5058022;28;20182;-76
2023/05/08 12:59:44;;;;;;;4.07;3.60;;;;;;;;;;5060604;28;20185;-75
2023/05/08 13:02:16;;;;;;;5.47;4.47;;;;;;;;;;5049440;28;20204;-75
2023/05/08 13:04:42;;;;;;;4.30;3.80;;;;;;;;;;5057569;28;20185;-75
2023/05/08 13:07:07;;;;;;;3.37;3.17;;;;;;;;;;5061873;28;20187;-76
2023/05/08 13:09:32;;;;;;;4.20;3.80;;;;;;;;;;5057572;28;20199;-75
2023/05/08 13:11:57;;;;;;;4.43;3.63;;;;;;;;;;5060440;28;20200;-75
2023/05/08 13:14:23;;;;;;;3.77;3.47;;;;;;;;;;5060054;28;20182;-75
2023/05/08 13:16:48;;;;;;;33.13;8.27;;;;;;;;;;5053167;28;20185;-75
2023/05/08 13:19:14;;;;;;;6.30;3.97;;;;;;;;;;5059213;28;20235;-75
2023/05/08 13:21:39;;;;;;;3.90;3.60;;;;;;;;;;5064786;28;20177;-75
2023/05/08 13:24:05;;;;;;;6.87;6.13;;;;;;;;;;5060881;28;20178;-77
2023/05/08 13:26:30;;;;;;;3.97;3.67;;;;;;;;;;5060784;28;20183;-77
2023/05/08 13:28:55;;;;;;;5.70;4.57;;;;;;;;;;5060019;28;20177;-76
2023/05/08 13:31:20;;;;;;;5.53;4.87;;;;;;;;;;5077188;28;20180;-76
2023/05/08 13:33:45;;;;;;;4.27;3.60;;;;;;;;;;5017305;28;20295;-76
2023/05/08 13:36:11;;;;;;;9.83;4.30;;;;;;;;;;5042069;28;20282;-76
2023/05/08 13:38:36;;;;;;;4.83;4.10;;;;;;;;;;5042899;28;20196;-77
2023/05/08 13:41:01;;;;;;;3.90;3.60;;;;;;;;;;5024670;28;20186;-77
2023/05/08 13:43:26;;;;;;;4.13;3.73;;;;;;;;;;5038656;28;20271;-76
2023/05/08 13:45:52;;;;;;;4.33;3.93;;;;;;;;;;5020368;28;20190;-76
2023/05/08 13:48:17;;;;;;;4.83;4.43;;;;;;;;;;5045035;28;20192;-76
2023/05/08 13:50:43;;;;;;;4.07;3.77;;;;;;;;;;5016814;28;20177;-76
2023/05/08 13:53:08;;;;;;;3.43;3.23;;;;;;;;;;5019810;28;20320;-76
2023/05/08 13:55:34;;;;;;;3.87;3.50;;;;;;;;;;5019157;28;20264;-76
2023/05/08 13:58:00;;;;;;;3.30;3.10;;;;;;;;;;5040135;28;20193;-76
2023/05/08 14:00:25;;;;;;;3.70;3.33;;;;;;;;;;5038449;28;20182;-76
2023/05/08 14:02:50;;;;;;;5.90;4.43;;;;;;;;;;5038735;28;20212;-76
2023/05/08 14:05:15;;;;;;;4.27;3.73;;;;;;;;;;5022159;28;20211;-76
2023/05/08 14:07:41;;;;;;;3.63;2.60;;;;;;;;;;5038303;28;20186;-76
2023/05/08 14:10:06;;;;;;;3.57;3.37;;;;;;;;;;5023794;28;20176;-76
2023/05/08 14:12:34;;;;;;;3.80;3.50;;;;;;;;;;5019366;28;20305;-76
2023/05/08 14:15:00;;;;;;;3.97;2.93;;;;;;;;;;5047791;28;20181;-76
2023/05/08 14:17:25;;;;;;;6.33;5.73;;;;;;;;;;5044014;28;20176;-76
2023/05/08 14:19:51;;;;;;;7.50;6.67;;;;;;;;;;5024921;28;20224;-76
2023/05/08 14:22:16;;;;;;;8.23;7.53;;;;;;;;;;5024192;28;20183;-76
2023/05/08 14:24:41;;;;;;;11.00;7.97;;;;;;;;;;5028527;28;20202;-76
2023/05/08 14:27:06;;;;;;;8.90;8.07;;;;;;;;;;5045035;28;20186;-76
2023/05/08 14:29:35;;;;;;;10.23;8.23;;;;;;;;;;5027697;28;20194;-76
2023/05/08 14:32:00;;;;;;;10.83;7.97;;;;;;;;;;5034068;28;20225;-76
2023/05/08 14:34:25;;;;;;;9.70;8.70;;;;;;;;;;5061063;28;20187;-76
2023/05/08 14:36:51;;;;;;;10.03;9.03;;;;;;;;;;5067186;28;20200;-76